sensor_id;sensor_type;location;lat;lon;timestamp;P1;durP1;ratioP1;P2;durP2;ratioP2
76566;SDS011;65428;53.194;6.132;2023-04-15T00:00:14;12.30;;;6.20;;
76566;SDS011;65428;53.194;6.132;2023-04-15T00:02:41;11.55;;;6.45;;
76566;SDS011;65428;53.194;6.132;2023-04-15T00:05:06;10.90;;;7.18;;
76566;SDS011;65428;53.194;6.132;2023-04-15T00:07:32;11.13;;;6.88;;
76566;SDS011;65428;53.194;6.132;2023-04-15T00:09:58;13.40;;;6.68;;
76566;SDS011;65428;53.194;6.132;2023-04-15T00:12:24;10.57;;;6.60;;
76566;SDS011;65428;53.194;6.132;2023-04-15T00:14:50;12.48;;;6.68;;
76566;SDS011;65428;53.194;6.132;2023-04-15T00:17:16;8.15;;;6.15;;
76566;SDS011;65428;53.194;6.132;2023-04-15T00:19:42;11.02;;;6.90;;
76566;SDS011;65428;53.194;6.132;2023-04-15T00:22:09;12.17;;;7.10;;
76566;SDS011;65428;53.194;6.132;2023-04-15T00:24:36;11.73;;;6.82;;
76566;SDS011;65428;53.194;6.132;2023-04-15T00:27:02;10.68;;;6.80;;
76566;SDS011;65428;53.194;6.132;2023-04-15T00:29:28;10.35;;;6.75;;
76566;SDS011;65428;53.194;6.132;2023-04-15T00:31:54;11.10;;;6.83;;
76566;SDS011;65428;53.194;6.132;2023-04-15T00:34:21;12.63;;;7.15;;
76566;SDS011;65428;53.194;6.132;2023-04-15T00:36:47;13.27;;;8.03;;
76566;SDS011;65428;53.194;6.132;2023-04-15T00:39:13;12.85;;;8.20;;
76566;SDS011;65428;53.194;6.132;2023-04-15T00:41:40;11.90;;;7.33;;
76566;SDS011;65428;53.194;6.132;2023-04-15T00:44:07;13.65;;;7.82;;
76566;SDS011;65428;53.194;6.132;2023-04-15T00:46:36;12.30;;;8.32;;
76566;SDS011;65428;53.194;6.132;2023-04-15T00:49:06;12.68;;;8.18;;
76566;SDS011;65428;53.194;6.132;2023-04-15T00:51:32;11.35;;;7.55;;
76566;SDS011;65428;53.194;6.132;2023-04-15T00:54:00;12.43;;;8.05;;
76566;SDS011;65428;53.194;6.132;2023-04-15T00:56:35;14.65;;;9.20;;
76566;SDS011;65428;53.194;6.132;2023-04-15T00:59:03;15.68;;;8.77;;
76566;SDS011;65428;53.194;6.132;2023-04-15T01:01:30;12.80;;;8.30;;
76566;SDS011;65428;53.194;6.132;2023-04-15T01:03:58;12.07;;;8.63;;
76566;SDS011;65428;53.194;6.132;2023-04-15T01:06:24;12.00;;;9.23;;
76566;SDS011;65428;53.194;6.132;2023-04-15T01:08:51;12.27;;;8.77;;
76566;SDS011;65428;53.194;6.132;2023-04-15T01:11:18;16.08;;;11.02;;
76566;SDS011;65428;53.194;6.132;2023-04-15T01:13:45;15.02;;;10.18;;
76566;SDS011;65428;53.194;6.132;2023-04-15T01:16:11;12.88;;;10.77;;
76566;SDS011;65428;53.194;6.132;2023-04-15T01:18:38;15.88;;;10.88;;
76566;SDS011;65428;53.194;6.132;2023-04-15T01:21:04;15.95;;;11.05;;
76566;SDS011;65428;53.194;6.132;2023-04-15T01:23:31;16.15;;;12.20;;
76566;SDS011;65428;53.194;6.132;2023-04-15T01:25:58;16.05;;;11.65;;
76566;SDS011;65428;53.194;6.132;2023-04-15T01:28:24;15.25;;;12.73;;
76566;SDS011;65428;53.194;6.132;2023-04-15T01:30:50;16.45;;;12.15;;
76566;SDS011;65428;53.194;6.132;2023-04-15T01:33:32;15.35;;;11.73;;
76566;SDS011;65428;53.194;6.132;2023-04-15T01:35:58;16.00;;;11.30;;
76566;SDS011;65428;53.194;6.132;2023-04-15T01:38:25;17.15;;;11.88;;
76566;SDS011;65428;53.194;6.132;2023-04-15T01:40:52;16.52;;;11.70;;
76566;SDS011;65428;53.194;6.132;2023-04-15T01:43:18;15.68;;;12.15;;
76566;SDS011;65428;53.194;6.132;2023-04-15T01:45:43;17.40;;;11.60;;
76566;SDS011;65428;53.194;6.132;2023-04-15T01:48:09;14.98;;;12.02;;
76566;SDS011;65428;53.194;6.132;2023-04-15T01:50:36;18.77;;;12.60;;
76566;SDS011;65428;53.194;6.132;2023-04-15T01:53:02;19.30;;;13.60;;
76566;SDS011;65428;53.194;6.132;2023-04-15T01:55:28;16.10;;;11.40;;
76566;SDS011;65428;53.194;6.132;2023-04-15T01:57:54;17.85;;;14.25;;
76566;SDS011;65428;53.194;6.132;2023-04-15T02:00:20;20.88;;;14.48;;
76566;SDS011;65428;53.194;6.132;2023-04-15T02:02:47;19.25;;;13.35;;
76566;SDS011;65428;53.194;6.132;2023-04-15T02:05:13;19.42;;;13.43;;
76566;SDS011;65428;53.194;6.132;2023-04-15T02:07:41;23.08;;;16.20;;
76566;SDS011;65428;53.194;6.132;2023-04-15T02:10:07;18.63;;;14.45;;
76566;SDS011;65428;53.194;6.132;2023-04-15T02:12:34;19.52;;;14.40;;
76566;SDS011;65428;53.194;6.132;2023-04-15T02:15:00;21.65;;;16.40;;
76566;SDS011;65428;53.194;6.132;2023-04-15T02:17:26;27.27;;;18.15;;
76566;SDS011;65428;53.194;6.132;2023-04-15T02:19:52;21.90;;;15.32;;
76566;SDS011;65428;53.194;6.132;2023-04-15T02:22:19;20.80;;;15.88;;
76566;SDS011;65428;53.194;6.132;2023-04-15T02:24:45;23.00;;;17.17;;
76566;SDS011;65428;53.194;6.132;2023-04-15T02:27:14;21.13;;;15.87;;
76566;SDS011;65428;53.194;6.132;2023-04-15T02:29:42;26.60;;;19.70;;
76566;SDS011;65428;53.194;6.132;2023-04-15T02:32:08;22.52;;;16.45;;
76566;SDS011;65428;53.194;6.132;2023-04-15T02:34:35;17.58;;;14.10;;
76566;SDS011;65428;53.194;6.132;2023-04-15T02:37:02;18.58;;;15.18;;
76566;SDS011;65428;53.194;6.132;2023-04-15T02:39:28;21.15;;;14.48;;
76566;SDS011;65428;53.194;6.132;2023-04-15T02:41:54;19.15;;;14.55;;
76566;SDS011;65428;53.194;6.132;2023-04-15T02:44:23;20.43;;;14.57;;
76566;SDS011;65428;53.194;6.132;2023-04-15T02:46:49;20.10;;;14.97;;
76566;SDS011;65428;53.194;6.132;2023-04-15T02:49:16;19.20;;;15.75;;
76566;SDS011;65428;53.194;6.132;2023-04-15T02:51:42;19.03;;;14.97;;
76566;SDS011;65428;53.194;6.132;2023-04-15T02:54:11;20.73;;;16.00;;
76566;SDS011;65428;53.194;6.132;2023-04-15T02:56:37;22.27;;;16.60;;
76566;SDS011;65428;53.194;6.132;2023-04-15T02:59:02;20.60;;;16.05;;
76566;SDS011;65428;53.194;6.132;2023-04-15T03:01:28;19.83;;;15.90;;
76566;SDS011;65428;53.194;6.132;2023-04-15T03:03:54;20.30;;;15.95;;
76566;SDS011;65428;53.194;6.132;2023-04-15T03:06:20;20.23;;;16.00;;
76566;SDS011;65428;53.194;6.132;2023-04-15T03:08:46;21.17;;;16.23;;
76566;SDS011;65428;53.194;6.132;2023-04-15T03:11:11;25.35;;;18.50;;
76566;SDS011;65428;53.194;6.132;2023-04-15T03:13:38;22.73;;;18.52;;
76566;SDS011;65428;53.194;6.132;2023-04-15T03:16:05;24.73;;;18.33;;
76566;SDS011;65428;53.194;6.132;2023-04-15T03:18:31;23.10;;;18.13;;
76566;SDS011;65428;53.194;6.132;2023-04-15T03:20:57;24.90;;;18.50;;
76566;SDS011;65428;53.194;6.132;2023-04-15T03:23:23;23.85;;;17.77;;
76566;SDS011;65428;53.194;6.132;2023-04-15T03:25:49;21.17;;;17.45;;
76566;SDS011;65428;53.194;6.132;2023-04-15T03:28:15;27.92;;;19.83;;
76566;SDS011;65428;53.194;6.132;2023-04-15T03:30:41;24.47;;;18.17;;
76566;SDS011;65428;53.194;6.132;2023-04-15T03:33:06;24.33;;;18.57;;
76566;SDS011;65428;53.194;6.132;2023-04-15T03:35:33;30.00;;;22.15;;
76566;SDS011;65428;53.194;6.132;2023-04-15T03:37:59;26.83;;;20.20;;
76566;SDS011;65428;53.194;6.132;2023-04-15T03:40:25;28.63;;;21.67;;
76566;SDS011;65428;53.194;6.132;2023-04-15T03:42:51;33.28;;;23.60;;
76566;SDS011;65428;53.194;6.132;2023-04-15T03:45:16;31.93;;;22.37;;
76566;SDS011;65428;53.194;6.132;2023-04-15T03:47:42;26.70;;;21.47;;
76566;SDS011;65428;53.194;6.132;2023-04-15T03:50:08;27.10;;;20.70;;
76566;SDS011;65428;53.194;6.132;2023-04-15T03:52:34;28.73;;;21.80;;
76566;SDS011;65428;53.194;6.132;2023-04-15T03:54:59;30.60;;;21.92;;
76566;SDS011;65428;53.194;6.132;2023-04-15T03:57:25;29.02;;;21.50;;
76566;SDS011;65428;53.194;6.132;2023-04-15T03:59:51;33.95;;;23.80;;
76566;SDS011;65428;53.194;6.132;2023-04-15T04:02:17;29.47;;;21.63;;
76566;SDS011;65428;53.194;6.132;2023-04-15T04:04:42;33.23;;;23.03;;
76566;SDS011;65428;53.194;6.132;2023-04-15T04:07:13;35.03;;;23.52;;
76566;SDS011;65428;53.194;6.132;2023-04-15T04:09:39;30.90;;;23.13;;
76566;SDS011;65428;53.194;6.132;2023-04-15T04:12:06;30.23;;;22.48;;
76566;SDS011;65428;53.194;6.132;2023-04-15T04:14:31;30.05;;;22.45;;
76566;SDS011;65428;53.194;6.132;2023-04-15T04:16:57;32.95;;;24.40;;
76566;SDS011;65428;53.194;6.132;2023-04-15T04:19:23;26.43;;;20.50;;
76566;SDS011;65428;53.194;6.132;2023-04-15T04:21:48;28.17;;;21.63;;
76566;SDS011;65428;53.194;6.132;2023-04-15T04:24:14;33.92;;;23.67;;
76566;SDS011;65428;53.194;6.132;2023-04-15T04:26:40;32.70;;;23.35;;
76566;SDS011;65428;53.194;6.132;2023-04-15T04:29:06;34.17;;;24.05;;
76566;SDS011;65428;53.194;6.132;2023-04-15T04:31:32;31.92;;;23.40;;
76566;SDS011;65428;53.194;6.132;2023-04-15T04:33:57;36.88;;;24.73;;
76566;SDS011;65428;53.194;6.132;2023-04-15T04:36:23;35.10;;;24.57;;
76566;SDS011;65428;53.194;6.132;2023-04-15T04:38:50;33.55;;;23.40;;
76566;SDS011;65428;53.194;6.132;2023-04-15T04:41:16;34.03;;;23.23;;
76566;SDS011;65428;53.194;6.132;2023-04-15T04:43:42;36.90;;;25.83;;
76566;SDS011;65428;53.194;6.132;2023-04-15T04:46:08;42.83;;;26.47;;
76566;SDS011;65428;53.194;6.132;2023-04-15T04:48:34;36.58;;;24.63;;
76566;SDS011;65428;53.194;6.132;2023-04-15T04:51:00;32.42;;;22.08;;
76566;SDS011;65428;53.194;6.132;2023-04-15T04:53:26;31.15;;;22.42;;
76566;SDS011;65428;53.194;6.132;2023-04-15T04:55:52;29.13;;;20.80;;
76566;SDS011;65428;53.194;6.132;2023-04-15T04:58:18;33.45;;;23.73;;
76566;SDS011;65428;53.194;6.132;2023-04-15T05:00:43;36.65;;;25.40;;
76566;SDS011;65428;53.194;6.132;2023-04-15T05:03:09;37.27;;;24.93;;
76566;SDS011;65428;53.194;6.132;2023-04-15T05:05:35;37.88;;;24.85;;
76566;SDS011;65428;53.194;6.132;2023-04-15T05:08:03;54.08;;;31.52;;
76566;SDS011;65428;53.194;6.132;2023-04-15T05:10:29;49.88;;;31.08;;
76566;SDS011;65428;53.194;6.132;2023-04-15T05:12:56;39.70;;;27.67;;
76566;SDS011;65428;53.194;6.132;2023-04-15T05:15:21;43.30;;;28.55;;
76566;SDS011;65428;53.194;6.132;2023-04-15T05:17:47;53.45;;;33.03;;
76566;SDS011;65428;53.194;6.132;2023-04-15T05:20:13;59.37;;;34.63;;
76566;SDS011;65428;53.194;6.132;2023-04-15T05:22:39;57.80;;;34.17;;
76566;SDS011;65428;53.194;6.132;2023-04-15T05:25:05;41.47;;;28.08;;
76566;SDS011;65428;53.194;6.132;2023-04-15T05:27:31;51.28;;;31.98;;
76566;SDS011;65428;53.194;6.132;2023-04-15T05:29:57;42.03;;;28.90;;
76566;SDS011;65428;53.194;6.132;2023-04-15T05:32:22;43.03;;;28.43;;
76566;SDS011;65428;53.194;6.132;2023-04-15T05:34:48;45.60;;;29.13;;
76566;SDS011;65428;53.194;6.132;2023-04-15T05:37:14;53.17;;;32.97;;
76566;SDS011;65428;53.194;6.132;2023-04-15T05:39:39;47.50;;;30.58;;
76566;SDS011;65428;53.194;6.132;2023-04-15T05:42:06;43.53;;;29.17;;
76566;SDS011;65428;53.194;6.132;2023-04-15T05:44:32;48.45;;;31.45;;
76566;SDS011;65428;53.194;6.132;2023-04-15T05:46:58;45.42;;;30.50;;
76566;SDS011;65428;53.194;6.132;2023-04-15T05:49:24;47.40;;;29.67;;
76566;SDS011;65428;53.194;6.132;2023-04-15T05:51:50;39.47;;;27.30;;
76566;SDS011;65428;53.194;6.132;2023-04-15T05:54:16;38.73;;;26.53;;
76566;SDS011;65428;53.194;6.132;2023-04-15T05:56:42;38.80;;;26.20;;
76566;SDS011;65428;53.194;6.132;2023-04-15T05:59:08;36.58;;;25.73;;
76566;SDS011;65428;53.194;6.132;2023-04-15T06:01:34;35.88;;;24.55;;
76566;SDS011;65428;53.194;6.132;2023-04-15T06:03:59;36.87;;;24.93;;
76566;SDS011;65428;53.194;6.132;2023-04-15T06:06:28;29.33;;;21.63;;
76566;SDS011;65428;53.194;6.132;2023-04-15T06:09:07;29.15;;;22.02;;
76566;SDS011;65428;53.194;6.132;2023-04-15T06:11:32;31.02;;;22.35;;
76566;SDS011;65428;53.194;6.132;2023-04-15T06:13:58;25.58;;;19.42;;
76566;SDS011;65428;53.194;6.132;2023-04-15T06:16:24;24.95;;;19.27;;
76566;SDS011;65428;53.194;6.132;2023-04-15T06:18:50;24.63;;;18.93;;
76566;SDS011;65428;53.194;6.132;2023-04-15T06:21:16;25.27;;;19.93;;
76566;SDS011;65428;53.194;6.132;2023-04-15T06:23:41;26.30;;;20.20;;
76566;SDS011;65428;53.194;6.132;2023-04-15T06:26:07;29.88;;;20.92;;
76566;SDS011;65428;53.194;6.132;2023-04-15T06:28:33;27.10;;;19.33;;
76566;SDS011;65428;53.194;6.132;2023-04-15T06:30:58;26.03;;;19.13;;
76566;SDS011;65428;53.194;6.132;2023-04-15T06:33:25;21.55;;;17.85;;
76566;SDS011;65428;53.194;6.132;2023-04-15T06:35:51;27.27;;;20.40;;
76566;SDS011;65428;53.194;6.132;2023-04-15T06:38:16;27.67;;;19.93;;
76566;SDS011;65428;53.194;6.132;2023-04-15T06:40:42;25.57;;;19.33;;
76566;SDS011;65428;53.194;6.132;2023-04-15T06:43:08;30.88;;;20.88;;
76566;SDS011;65428;53.194;6.132;2023-04-15T06:45:34;27.00;;;19.95;;
76566;SDS011;65428;53.194;6.132;2023-04-15T06:48:00;29.70;;;19.75;;
76566;SDS011;65428;53.194;6.132;2023-04-15T06:50:26;25.17;;;18.60;;
76566;SDS011;65428;53.194;6.132;2023-04-15T06:52:53;27.02;;;20.00;;
76566;SDS011;65428;53.194;6.132;2023-04-15T06:55:20;27.00;;;19.88;;
76566;SDS011;65428;53.194;6.132;2023-04-15T06:57:46;23.45;;;18.88;;
76566;SDS011;65428;53.194;6.132;2023-04-15T07:00:12;26.33;;;18.83;;
76566;SDS011;65428;53.194;6.132;2023-04-15T07:02:38;25.15;;;18.67;;
76566;SDS011;65428;53.194;6.132;2023-04-15T07:05:04;23.88;;;17.67;;
76566;SDS011;65428;53.194;6.132;2023-04-15T07:07:31;21.63;;;17.20;;
76566;SDS011;65428;53.194;6.132;2023-04-15T07:09:56;19.45;;;15.85;;
76566;SDS011;65428;53.194;6.132;2023-04-15T07:12:22;18.67;;;14.77;;
76566;SDS011;65428;53.194;6.132;2023-04-15T07:14:48;18.13;;;14.73;;
76566;SDS011;65428;53.194;6.132;2023-04-15T07:17:14;15.17;;;13.13;;
76566;SDS011;65428;53.194;6.132;2023-04-15T07:19:39;15.48;;;12.32;;
76566;SDS011;65428;53.194;6.132;2023-04-15T07:22:05;13.05;;;10.43;;
76566;SDS011;65428;53.194;6.132;2023-04-15T07:24:31;11.40;;;10.13;;
76566;SDS011;65428;53.194;6.132;2023-04-15T07:26:57;11.43;;;10.23;;
76566;SDS011;65428;53.194;6.132;2023-04-15T07:29:23;12.68;;;10.43;;
76566;SDS011;65428;53.194;6.132;2023-04-15T07:31:50;10.88;;;9.77;;
76566;SDS011;65428;53.194;6.132;2023-04-15T07:34:16;10.40;;;8.13;;
76566;SDS011;65428;53.194;6.132;2023-04-15T07:36:43;11.13;;;8.57;;
76566;SDS011;65428;53.194;6.132;2023-04-15T07:39:08;8.37;;;7.13;;
76566;SDS011;65428;53.194;6.132;2023-04-15T07:41:34;8.45;;;7.50;;
76566;SDS011;65428;53.194;6.132;2023-04-15T07:44:00;7.37;;;6.37;;
76566;SDS011;65428;53.194;6.132;2023-04-15T07:46:25;7.33;;;6.13;;
76566;SDS011;65428;53.194;6.132;2023-04-15T07:48:53;6.55;;;5.82;;
76566;SDS011;65428;53.194;6.132;2023-04-15T07:51:19;6.50;;;5.72;;
76566;SDS011;65428;53.194;6.132;2023-04-15T07:53:46;7.47;;;5.88;;
76566;SDS011;65428;53.194;6.132;2023-04-15T07:56:12;7.03;;;5.38;;
76566;SDS011;65428;53.194;6.132;2023-04-15T07:58:38;6.05;;;5.18;;
76566;SDS011;65428;53.194;6.132;2023-04-15T08:01:04;6.32;;;5.18;;
76566;SDS011;65428;53.194;6.132;2023-04-15T08:03:30;5.60;;;5.00;;
76566;SDS011;65428;53.194;6.132;2023-04-15T08:05:56;8.32;;;5.57;;
76566;SDS011;65428;53.194;6.132;2023-04-15T08:08:21;5.15;;;4.60;;
76566;SDS011;65428;53.194;6.132;2023-04-15T08:10:47;5.32;;;4.20;;
76566;SDS011;65428;53.194;6.132;2023-04-15T08:13:20;4.53;;;3.45;;
76566;SDS011;65428;53.194;6.132;2023-04-15T08:16:15;4.57;;;2.90;;
76566;SDS011;65428;53.194;6.132;2023-04-15T08:18:46;4.30;;;3.00;;
76566;SDS011;65428;53.194;6.132;2023-04-15T08:21:12;3.80;;;2.53;;
76566;SDS011;65428;53.194;6.132;2023-04-15T08:23:39;3.28;;;2.83;;
76566;SDS011;65428;53.194;6.132;2023-04-15T08:26:05;4.57;;;2.90;;
76566;SDS011;65428;53.194;6.132;2023-04-15T08:28:33;4.53;;;3.22;;
76566;SDS011;65428;53.194;6.132;2023-04-15T08:31:00;4.05;;;2.95;;
76566;SDS011;65428;53.194;6.132;2023-04-15T08:33:25;5.10;;;3.47;;
76566;SDS011;65428;53.194;6.132;2023-04-15T08:35:52;6.88;;;3.67;;
76566;SDS011;65428;53.194;6.132;2023-04-15T08:38:18;6.13;;;4.57;;
76566;SDS011;65428;53.194;6.132;2023-04-15T08:40:44;5.30;;;4.57;;
76566;SDS011;65428;53.194;6.132;2023-04-15T08:43:12;5.22;;;3.63;;
76566;SDS011;65428;53.194;6.132;2023-04-15T08:46:02;4.38;;;3.38;;
76566;SDS011;65428;53.194;6.132;2023-04-15T08:48:32;3.93;;;3.20;;
76566;SDS011;65428;53.194;6.132;2023-04-15T08:51:02;5.25;;;3.40;;
76566;SDS011;65428;53.194;6.132;2023-04-15T08:54:02;5.00;;;3.20;;
76566;SDS011;65428;53.194;6.132;2023-04-15T08:56:23;6.00;;;3.03;;
76566;SDS011;65428;53.194;6.132;2023-04-15T08:58:50;4.85;;;3.00;;
76566;SDS011;65428;53.194;6.132;2023-04-15T09:01:17;5.00;;;3.30;;
76566;SDS011;65428;53.194;6.132;2023-04-15T09:03:47;4.25;;;2.63;;
76566;SDS011;65428;53.194;6.132;2023-04-15T09:06:16;4.80;;;2.80;;
76566;SDS011;65428;53.194;6.132;2023-04-15T09:08:55;3.70;;;2.50;;
76566;SDS011;65428;53.194;6.132;2023-04-15T09:11:21;3.45;;;2.25;;
76566;SDS011;65428;53.194;6.132;2023-04-15T09:13:47;4.07;;;2.40;;
76566;SDS011;65428;53.194;6.132;2023-04-15T09:16:13;3.97;;;2.72;;
76566;SDS011;65428;53.194;6.132;2023-04-15T09:18:39;5.50;;;3.42;;
76566;SDS011;65428;53.194;6.132;2023-04-15T09:23:32;3.45;;;1.70;;
76566;SDS011;65428;53.194;6.132;2023-04-15T09:26:00;3.75;;;1.90;;
76566;SDS011;65428;53.194;6.132;2023-04-15T09:28:26;2.95;;;1.60;;
76566;SDS011;65428;53.194;6.132;2023-04-15T09:30:56;3.10;;;1.40;;
76566;SDS011;65428;53.194;6.132;2023-04-15T09:33:25;4.27;;;1.23;;
76566;SDS011;65428;53.194;6.132;2023-04-15T09:36:02;2.75;;;0.88;;
76566;SDS011;65428;53.194;6.132;2023-04-15T09:38:29;3.15;;;0.80;;
76566;SDS011;65428;53.194;6.132;2023-04-15T09:40:56;3.28;;;1.10;;
76566;SDS011;65428;53.194;6.132;2023-04-15T09:43:37;5.55;;;1.10;;
76566;SDS011;65428;53.194;6.132;2023-04-15T09:46:03;4.22;;;1.40;;
76566;SDS011;65428;53.194;6.132;2023-04-15T09:48:30;3.28;;;1.23;;
76566;SDS011;65428;53.194;6.132;2023-04-15T09:50:59;2.20;;;0.50;;
76566;SDS011;65428;53.194;6.132;2023-04-15T09:53:25;1.70;;;0.32;;
76566;SDS011;65428;53.194;6.132;2023-04-15T09:55:55;2.85;;;0.60;;
76566;SDS011;65428;53.194;6.132;2023-04-15T09:58:23;3.43;;;0.50;;
76566;SDS011;65428;53.194;6.132;2023-04-15T10:00:50;1.88;;;0.40;;
76566;SDS011;65428;53.194;6.132;2023-04-15T10:03:20;2.70;;;0.50;;
76566;SDS011;65428;53.194;6.132;2023-04-15T10:05:51;2.20;;;0.43;;
76566;SDS011;65428;53.194;6.132;2023-04-15T10:08:18;2.42;;;0.47;;
76566;SDS011;65428;53.194;6.132;2023-04-15T10:10:46;1.93;;;0.40;;
76566;SDS011;65428;53.194;6.132;2023-04-15T10:13:13;3.30;;;0.55;;
76566;SDS011;65428;53.194;6.132;2023-04-15T10:15:43;3.95;;;0.47;;
76566;SDS011;65428;53.194;6.132;2023-04-15T10:18:15;2.95;;;0.60;;
76566;SDS011;65428;53.194;6.132;2023-04-15T10:20:43;2.92;;;0.70;;
76566;SDS011;65428;53.194;6.132;2023-04-15T10:23:12;1.57;;;0.40;;
76566;SDS011;65428;53.194;6.132;2023-04-15T10:25:39;2.78;;;0.60;;
76566;SDS011;65428;53.194;6.132;2023-04-15T10:28:18;2.40;;;0.55;;
76566;SDS011;65428;53.194;6.132;2023-04-15T10:30:48;1.55;;;0.35;;
76566;SDS011;65428;53.194;6.132;2023-04-15T10:33:17;2.58;;;0.50;;
76566;SDS011;65428;53.194;6.132;2023-04-15T10:35:47;1.95;;;0.50;;
76566;SDS011;65428;53.194;6.132;2023-04-15T10:43:47;2.13;;;0.40;;
76566;SDS011;65428;53.194;6.132;2023-04-15T10:46:18;2.40;;;0.60;;
76566;SDS011;65428;53.194;6.132;2023-04-15T10:48:51;2.93;;;0.47;;
76566;SDS011;65428;53.194;6.132;2023-04-15T10:51:30;1.88;;;0.40;;
76566;SDS011;65428;53.194;6.132;2023-04-15T10:53:57;2.45;;;0.73;;
76566;SDS011;65428;53.194;6.132;2023-04-15T10:56:24;2.38;;;0.63;;
76566;SDS011;65428;53.194;6.132;2023-04-15T10:58:50;3.95;;;0.68;;
76566;SDS011;65428;53.194;6.132;2023-04-15T11:01:16;3.70;;;0.77;;
76566;SDS011;65428;53.194;6.132;2023-04-15T11:03:44;2.83;;;0.70;;
76566;SDS011;65428;53.194;6.132;2023-04-15T11:06:10;3.73;;;0.70;;
76566;SDS011;65428;53.194;6.132;2023-04-15T11:08:57;3.20;;;0.93;;
76566;SDS011;65428;53.194;6.132;2023-04-15T11:14:35;3.95;;;0.60;;
76566;SDS011;65428;53.194;6.132;2023-04-15T11:17:04;5.70;;;0.85;;
76566;SDS011;65428;53.194;6.132;2023-04-15T11:19:36;4.00;;;0.80;;
76566;SDS011;65428;53.194;6.132;2023-04-15T11:22:09;3.10;;;0.90;;
76566;SDS011;65428;53.194;6.132;2023-04-15T11:24:35;2.42;;;0.57;;
76566;SDS011;65428;53.194;6.132;2023-04-15T11:27:01;4.18;;;0.70;;
76566;SDS011;65428;53.194;6.132;2023-04-15T11:29:30;5.80;;;1.17;;
76566;SDS011;65428;53.194;6.132;2023-04-15T11:32:05;4.93;;;0.57;;
76566;SDS011;65428;53.194;6.132;2023-04-15T11:34:33;4.68;;;0.60;;
76566;SDS011;65428;53.194;6.132;2023-04-15T11:37:02;3.40;;;0.60;;
76566;SDS011;65428;53.194;6.132;2023-04-15T11:39:29;16.30;;;5.25;;
76566;SDS011;65428;53.194;6.132;2023-04-15T11:41:55;3.55;;;0.52;;
76566;SDS011;65428;53.194;6.132;2023-04-15T11:44:21;6.13;;;0.87;;
76566;SDS011;65428;53.194;6.132;2023-04-15T11:46:46;3.58;;;0.50;;
76566;SDS011;65428;53.194;6.132;2023-04-15T11:49:24;2.53;;;0.40;;
76566;SDS011;65428;53.194;6.132;2023-04-15T11:51:54;7.90;;;1.45;;
76566;SDS011;65428;53.194;6.132;2023-04-15T11:54:20;3.85;;;0.50;;
76566;SDS011;65428;53.194;6.132;2023-04-15T11:56:50;3.85;;;0.60;;
76566;SDS011;65428;53.194;6.132;2023-04-15T11:59:16;4.50;;;0.45;;
76566;SDS011;65428;53.194;6.132;2023-04-15T12:01:42;4.17;;;0.67;;
76566;SDS011;65428;53.194;6.132;2023-04-15T12:04:14;4.10;;;0.60;;
76566;SDS011;65428;53.194;6.132;2023-04-15T12:06:43;4.65;;;0.63;;
76566;SDS011;65428;53.194;6.132;2023-04-15T12:09:10;4.50;;;0.63;;
76566;SDS011;65428;53.194;6.132;2023-04-15T12:14:23;6.40;;;0.90;;
76566;SDS011;65428;53.194;6.132;2023-04-15T12:16:59;6.20;;;1.08;;
76566;SDS011;65428;53.194;6.132;2023-04-15T12:19:27;6.65;;;1.00;;
76566;SDS011;65428;53.194;6.132;2023-04-15T12:22:03;5.33;;;0.77;;
76566;SDS011;65428;53.194;6.132;2023-04-15T12:24:31;5.90;;;0.73;;
76566;SDS011;65428;53.194;6.132;2023-04-15T12:27:00;5.38;;;0.80;;
76566;SDS011;65428;53.194;6.132;2023-04-15T12:29:31;8.73;;;1.25;;
76566;SDS011;65428;53.194;6.132;2023-04-15T12:32:04;6.18;;;0.77;;
76566;SDS011;65428;53.194;6.132;2023-04-15T12:34:40;7.65;;;0.80;;
76566;SDS011;65428;53.194;6.132;2023-04-15T12:37:09;5.53;;;0.50;;
76566;SDS011;65428;53.194;6.132;2023-04-15T12:39:38;82.78;;;17.23;;
76566;SDS011;65428;53.194;6.132;2023-04-15T12:42:11;7.43;;;0.85;;
76566;SDS011;65428;53.194;6.132;2023-04-15T12:44:37;5.68;;;0.60;;
76566;SDS011;65428;53.194;6.132;2023-04-15T12:47:03;5.47;;;0.65;;
76566;SDS011;65428;53.194;6.132;2023-04-15T12:49:29;5.07;;;0.90;;
76566;SDS011;65428;53.194;6.132;2023-04-15T12:51:57;5.65;;;0.70;;
76566;SDS011;65428;53.194;6.132;2023-04-15T12:54:27;6.43;;;0.65;;
76566;SDS011;65428;53.194;6.132;2023-04-15T12:56:53;7.20;;;0.65;;
76566;SDS011;65428;53.194;6.132;2023-04-15T12:59:20;7.93;;;0.80;;
76566;SDS011;65428;53.194;6.132;2023-04-15T13:01:49;6.47;;;0.88;;
76566;SDS011;65428;53.194;6.132;2023-04-15T13:04:16;7.63;;;0.70;;
76566;SDS011;65428;53.194;6.132;2023-04-15T13:06:42;7.40;;;0.52;;
76566;SDS011;65428;53.194;6.132;2023-04-15T13:09:07;6.00;;;0.80;;
76566;SDS011;65428;53.194;6.132;2023-04-15T13:11:33;8.57;;;1.00;;
76566;SDS011;65428;53.194;6.132;2023-04-15T13:14:00;6.10;;;0.70;;
76566;SDS011;65428;53.194;6.132;2023-04-15T13:16:31;5.18;;;0.50;;
76566;SDS011;65428;53.194;6.132;2023-04-15T13:18:58;6.90;;;0.60;;
76566;SDS011;65428;53.194;6.132;2023-04-15T13:21:24;5.90;;;0.75;;
76566;SDS011;65428;53.194;6.132;2023-04-15T13:23:51;7.00;;;0.57;;
76566;SDS011;65428;53.194;6.132;2023-04-15T13:26:17;9.35;;;0.80;;
76566;SDS011;65428;53.194;6.132;2023-04-15T13:28:43;9.07;;;0.60;;
76566;SDS011;65428;53.194;6.132;2023-04-15T13:31:10;8.38;;;0.70;;
76566;SDS011;65428;53.194;6.132;2023-04-15T13:33:35;8.85;;;0.68;;
76566;SDS011;65428;53.194;6.132;2023-04-15T13:36:01;8.93;;;0.63;;
76566;SDS011;65428;53.194;6.132;2023-04-15T13:38:27;7.65;;;0.65;;
76566;SDS011;65428;53.194;6.132;2023-04-15T13:40:53;8.17;;;0.80;;
76566;SDS011;65428;53.194;6.132;2023-04-15T13:43:19;8.77;;;0.85;;
76566;SDS011;65428;53.194;6.132;2023-04-15T13:45:46;6.72;;;0.88;;
76566;SDS011;65428;53.194;6.132;2023-04-15T13:48:12;9.10;;;0.77;;
76566;SDS011;65428;53.194;6.132;2023-04-15T13:50:37;9.27;;;0.77;;
76566;SDS011;65428;53.194;6.132;2023-04-15T13:53:03;7.30;;;0.90;;
76566;SDS011;65428;53.194;6.132;2023-04-15T13:55:29;7.50;;;0.85;;
76566;SDS011;65428;53.194;6.132;2023-04-15T13:57:55;8.48;;;0.80;;
76566;SDS011;65428;53.194;6.132;2023-04-15T14:00:21;8.15;;;1.02;;
76566;SDS011;65428;53.194;6.132;2023-04-15T14:02:46;5.82;;;0.68;;
76566;SDS011;65428;53.194;6.132;2023-04-15T14:05:12;6.95;;;0.73;;
76566;SDS011;65428;53.194;6.132;2023-04-15T14:07:38;6.43;;;0.73;;
76566;SDS011;65428;53.194;6.132;2023-04-15T14:10:04;7.97;;;0.90;;
76566;SDS011;65428;53.194;6.132;2023-04-15T14:12:31;6.00;;;0.70;;
76566;SDS011;65428;53.194;6.132;2023-04-15T14:14:57;6.57;;;0.80;;
76566;SDS011;65428;53.194;6.132;2023-04-15T14:17:22;4.85;;;0.52;;
76566;SDS011;65428;53.194;6.132;2023-04-15T14:19:48;6.33;;;0.60;;
76566;SDS011;65428;53.194;6.132;2023-04-15T14:22:14;9.27;;;0.97;;
76566;SDS011;65428;53.194;6.132;2023-04-15T14:24:39;8.88;;;1.05;;
76566;SDS011;65428;53.194;6.132;2023-04-15T14:27:05;7.68;;;0.95;;
76566;SDS011;65428;53.194;6.132;2023-04-15T14:29:32;8.15;;;0.80;;
76566;SDS011;65428;53.194;6.132;2023-04-15T14:31:58;7.80;;;0.70;;
76566;SDS011;65428;53.194;6.132;2023-04-15T14:34:24;6.68;;;0.70;;
76566;SDS011;65428;53.194;6.132;2023-04-15T14:36:50;8.67;;;1.00;;
76566;SDS011;65428;53.194;6.132;2023-04-15T14:39:19;7.72;;;1.20;;
76566;SDS011;65428;53.194;6.132;2023-04-15T14:41:45;9.13;;;1.00;;
76566;SDS011;65428;53.194;6.132;2023-04-15T14:44:11;8.80;;;1.00;;
76566;SDS011;65428;53.194;6.132;2023-04-15T14:46:37;6.87;;;0.93;;
76566;SDS011;65428;53.194;6.132;2023-04-15T14:49:04;8.68;;;0.80;;